Ashbourne, Ireland

10:57 AM IST on July 26, 2016 (GMT +0100)
| | Change Station

Elev -9999 ft 0.00 °N, 0.00 °E | Updated

Cloudy
Cloudy
63 °F
Feels Like 63 °F
N
12
Wind Variable Wind from WSW
Gusts mph

Today
High -- | Low -- °F
--% Chance of Precip.
Yesterday
High -- | Low -- °F
Precip. -- in
Pressure 30.09 in
Visibility 6.2 miles
Clouds Few 900 ft
Scattered Clouds 1400 ft
Mostly Cloudy 5000 ft
Dew Point 56 °F
Humidity 79%
Rainfall --
Snow Depth Not available.
5:32 AM 9:31 PM
Waning Gibbous, 56% visible
METAR EIDW 260930Z 23010KT 9999 FEW009 SCT014 BKN050 16/13 Q1019 NOSIG
Pressure 30.09 in
Visibility 6.2 miles
Clouds Few 900 ft
Scattered Clouds 1400 ft
Mostly Cloudy 5000 ft
Dew Point 56 °F
Humidity 79%
Rainfall --
Snow Depth Not available.
5:32 AM 9:31 PM
Waning Gibbous, 56% visible
METAR EIDW 260930Z 23010KT 9999 FEW009 SCT014 BKN050 16/13 Q1019 NOSIG

10-Day Weather Forecast

×

Almanac

Astronomy

Jul. 26, 2016 Rise Set
Actual Time
Civil Twilight
Nautical Twilight
Astronomical Twilight
Moon
Length of Visible Light
Length of Day
Tomorrow will be .
, % of the Moon is Illuminated

Today's Extremes

Country Highs Country Lows

Community

WunderPhotos

Upload Photos

1,927,557 photos uploaded!

WunderBlog® & News

Nearby

Air Quality

  Air Quality AQ Index Pollutant
Not available.

Snow Depth

Station Depth Elevation

Earthquake Activity

City Distance Mag. Time & Date
Minimum magnitude displayed is 2.5.

Coastal Water Temperatures

Place Temperature

Stations

Nearby Weather Stations

Station Location Temp. Windchill Dew Point Humidity Wind Precip. Elev Updated Type